»·PEaware :: N899M KSAC-KRNO

N899M :: KSAC-KRNO

FLIGHT INFORMATION

Flight Status: Arrived
Operator: Privately registered:
United States
More flights under this callsign
Pilot: Robert C. (30425)
Aircraft: Unknown
(EPIC)
More flights by this aircraft type
Origin: KSAC Sacramento Executive
United States
Destination: KRNO Reno/Tahoe Intl
United States
More flights between these airports :: More routes between these airports
Route: SAC V6 SWR
File this flight plan on PilotEdge
Remarks:
Altitude:
(Current/Filed)
13,000ft
Speed:
(Current/Filed)
295kts
Departed: 11-Oct-20 08:40 PM
Arrived: 11-Oct-20 09:19 PM
Distance/Time
Traveled:
100nm/0:39
Distance/Time
To Go:
Arrived

Flight Plot

Page will automatically refresh every two minutes.

Flight plan parsing failed; only flown route is shown


Map Options




Map Legend


Flown Route
Filed Route
Departure Airport
Arrival Airport
Navaid (VOR, NDB)
Fix

Horizontal Profiles

Position Reports

Time Latitude Longitude Heading Altitude Ground
Speed
11-Oct-20 20:17 38.519957 -121.493673 235 24ft 0kts
11-Oct-20 20:18 38.519957 -121.493673 235 24ft 0kts
11-Oct-20 20:19 38.519957 -121.493673 235 24ft 0kts
11-Oct-20 20:20 38.519957 -121.493673 235 24ft 0kts
11-Oct-20 20:21 38.519957 -121.493673 235 24ft 0kts
11-Oct-20 20:22 38.519957 -121.493673 235 24ft 0kts
11-Oct-20 20:23 38.519957 -121.493673 235 24ft 0kts
11-Oct-20 20:24 38.519957 -121.493673 235 24ft 0kts
11-Oct-20 20:25 38.519957 -121.493673 235 24ft 0kts
11-Oct-20 20:26 38.519957 -121.493673 235 24ft 0kts
11-Oct-20 20:27 38.519957 -121.493673 235 24ft 0kts
11-Oct-20 20:28 38.519957 -121.493673 235 24ft 0kts
11-Oct-20 20:29 38.519957 -121.493673 235 24ft 0kts
11-Oct-20 20:30 38.519957 -121.493673 235 24ft 0kts
11-Oct-20 20:31 38.519957 -121.493673 235 24ft 0kts
11-Oct-20 20:32 38.519957 -121.493673 235 24ft 0kts
11-Oct-20 20:33 38.519957 -121.493673 235 24ft 0kts
11-Oct-20 20:34 38.519957 -121.493673 235 24ft 0kts
11-Oct-20 20:35 38.519417 -121.491809 98 23ft 11kts
11-Oct-20 20:37 38.519431 -121.490597 93 23ft 0kts
11-Oct-20 20:38 38.519236 -121.490417 136 23ft 0kts
11-Oct-20 20:39 38.518635 -121.489565 206 23ft 0kts
11-Oct-20 20:40 38.502012 -121.503391 213 311ft 165kts
11-Oct-20 20:41 38.461430 -121.478219 103 1315ft 246kts
11-Oct-20 20:42 38.443444 -121.386899 103 1999ft 280kts
11-Oct-20 20:43 38.424636 -121.292596 103 2714ft 268kts
11-Oct-20 20:44 38.448505 -121.219200 23 4220ft 255kts
11-Oct-20 20:45 38.512938 -121.180370 23 5722ft 258kts
11-Oct-20 20:46 38.579646 -121.140354 23 7234ft 269kts
11-Oct-20 20:47 38.647993 -121.100065 23 8731ft 273kts
11-Oct-20 20:48 38.717445 -121.059947 22 10228ft 275kts
11-Oct-20 20:49 38.769889 -120.990259 52 11902ft 277kts
11-Oct-20 20:50 38.815980 -120.910182 52 13072ft 286kts
11-Oct-20 20:50 38.855328 -120.841621 52 13074ft 287kts
11-Oct-20 20:52 38.910369 -120.745454 51 13097ft 287kts
11-Oct-20 20:52 38.949856 -120.676307 50 13133ft 289kts
11-Oct-20 20:54 39.005739 -120.577951 50 13172ft 295kts
11-Oct-20 20:54 39.046699 -120.506215 50 13201ft 301kts
11-Oct-20 20:55 39.096473 -120.418250 50 13208ft 305kts
11-Oct-20 20:56 39.146659 -120.329439 51 13220ft 307kts
11-Oct-20 20:57 39.198231 -120.241758 47 13235ft 306kts
11-Oct-20 20:59 39.261382 -120.142898 47 13237ft 306kts
11-Oct-20 20:59 39.307064 -120.071232 47 13073ft 310kts
11-Oct-20 21:00 39.361523 -119.985587 47 13071ft 308kts
11-Oct-20 21:01 39.415737 -119.900094 47 13036ft 308kts
11-Oct-20 21:02 39.481614 -119.845130 353 13023ft 285kts
11-Oct-20 21:03 39.553694 -119.850450 353 13007ft 240kts
11-Oct-20 21:04 39.617338 -119.854492 353 13021ft 221kts
11-Oct-20 21:05 39.679177 -119.858212 353 13035ft 223kts
11-Oct-20 21:06 39.741537 -119.861974 353 13036ft 225kts
11-Oct-20 21:07 39.804200 -119.865840 353 12638ft 224kts
11-Oct-20 21:08 39.865077 -119.864803 30 11656ft 227kts
11-Oct-20 21:09 39.854475 -119.798835 152 10688ft 222kts
11-Oct-20 21:10 39.799139 -119.766194 186 9609ft 218kts
11-Oct-20 21:11 39.738341 -119.768529 181 8731ft 207kts
11-Oct-20 21:12 39.686650 -119.768748 181 8033ft 165kts
11-Oct-20 21:13 39.645992 -119.768842 180 7205ft 147kts
11-Oct-20 21:14 39.604632 -119.768996 180 6416ft 145kts
11-Oct-20 21:15 39.568767 -119.769065 179 5627ft 121kts
11-Oct-20 21:16 39.536510 -119.768894 178 4948ft 101kts
11-Oct-20 21:17 39.510423 -119.769107 179 4446ft 93kts
11-Oct-20 21:18 39.497589 -119.769343 205 4418ft 21kts
11-Oct-20 21:19 39.497352 -119.770384 269 4418ft 0kts
11-Oct-20 21:20 39.500617 -119.770699 1 4418ft 25kts
11-Oct-20 21:21 39.505921 -119.770706 0 4418ft 10kts
11-Oct-20 21:22 39.508008 -119.772205 269 4418ft 11kts
11-Oct-20 21:23 39.507923 -119.774164 326 4418ft 6kts
11-Oct-20 21:24 39.508333 -119.773069 20 4418ft 0kts
11-Oct-20 21:25 39.508550 -119.773029 4 4418ft 0kts
11-Oct-20 21:26 39.508550 -119.773029 4 4418ft 0kts
11-Oct-20 21:27 39.508550 -119.773029 4 4418ft 0kts
11-Oct-20 21:28 39.508550 -119.773029 4 4418ft 0kts
11-Oct-20 21:29 39.508550 -119.773029 4 4418ft 0kts
11-Oct-20 21:30 39.508550 -119.773029 4 4418ft 0kts
11-Oct-20 21:31 39.508550 -119.773029 4 4418ft 0kts
11-Oct-20 21:32 39.508550 -119.773029 4 4418ft 0kts
11-Oct-20 21:33 39.508550 -119.773029 4 4418ft 0kts

Navigation Log

Ident Type
Flight plan parsing failed, navigation log unavailable